Huvudsida
METAR-TAF:

METAR-TAF

Flygplatser :

Juwata International Airport

Tarakan, Indonesien

latitud: 03-19-36N, longitud: 117-33-56E, höjd: 6 m

Aktuellt väderrapport

Denna rapport gjordes för 7 timmar och 3 minuter sedan, klockan 14:00 UTC
Stilla vind
Temperatur 26°C
Fuktighet 84%
Tryck 1013 hPa
Sikt: 8000 m
Få moln på en höjd av 1500 ft

METAR: WAQQ 211400Z 00000KT 8000 FEW015 26/23 Q1013

Tid: 04:03 (21:03 UTC)

Väderprognos

Denna rapport gjordes för 4 timmar och 3 minuter sedan, klockan 17:00 UTC
Prognos gäller från 21 kl. 18 UTC till 22 kl. 06 UTC
Vind kt från nord
Sikt: 8000 m
Få moln på en höjd av 1500 ft
Blir
från 21 kl. 22 UTC till 21 kl. 24 UTC
Vind 5 kt från nord
Sikt 10 km eller mer
Spridda moln på en höjd av 1800 ft

TAF: WAQQ 211700Z 2118/2206 00000KT 8000 FEW015 BECMG 2122/2124 35005KT 9999 SCT018

Aktuella väderrapporter och prognoser från 4000 flygplatser (METAR- och TAF-rapporter).

De tillgängliga stationerna syns som gula och röda prickar på kartan.

För musen över prickarna för att se namnen på stationerna.

Klicka sedan för att få väderrapporter och prognoser.

För att ändra kartan: Klicka på de gröna knapparna med ett svart kors på för att zooma in; den gröna knappen med ett streck på för att zooma ut; eller på de gröna pilarna för angränsande kartor.


METAR-TAF: